Sterling/Rock Falls, Illinois
Current Conditions -  °F | °C
As of 3:35 PM on Wednesday 26 Nov 2014 (Local Time) from KSQI Reporting Station
Overcast Overcast  
Wind Chill: -9°   Ceiling: 1700
Heat Index: -3°   Visibility: 9mi
Dew Point: -6°   Wind: 12mph
Humidity: 80%   Direction: 80°E
Pressure: 30.11"   Gusts: NA
Location:  41.73°N, 89.68°W
Report Text: KSQI 262135Z 08010KT 9SM OVC017 M03/M06 A3011 RMK AO1
Loading
Personal Weather Stations






























Interactive Weather Map New forecast layout! Learn more

10-Day Weather Forecast

Advertisements
Track Severe Weather on mobile